sensor_id;sensor_type;location;lat;lon;timestamp;temperature;humidity
13488;DHT22;6816;48.506;9.050;2023-04-30T00:01:17;14.50;99.90
13488;DHT22;6816;48.506;9.050;2023-04-30T00:04:17;14.40;99.90
13488;DHT22;6816;48.506;9.050;2023-04-30T00:07:18;14.40;99.90
13488;DHT22;6816;48.506;9.050;2023-04-30T00:10:18;14.40;99.90
13488;DHT22;6816;48.506;9.050;2023-04-30T00:13:19;14.30;99.90
13488;DHT22;6816;48.506;9.050;2023-04-30T00:16:20;14.30;99.90
13488;DHT22;6816;48.506;9.050;2023-04-30T00:19:20;14.30;99.90
13488;DHT22;6816;48.506;9.050;2023-04-30T00:22:21;14.30;99.90
13488;DHT22;6816;48.506;9.050;2023-04-30T00:25:21;14.30;99.90
13488;DHT22;6816;48.506;9.050;2023-04-30T00:28:23;14.20;99.90
13488;DHT22;6816;48.506;9.050;2023-04-30T00:31:24;14.30;99.90
13488;DHT22;6816;48.506;9.050;2023-04-30T00:34:25;14.30;99.90
13488;DHT22;6816;48.506;9.050;2023-04-30T00:37:25;14.30;99.90
13488;DHT22;6816;48.506;9.050;2023-04-30T00:40:26;14.30;99.90
13488;DHT22;6816;48.506;9.050;2023-04-30T00:43:27;14.30;99.90
13488;DHT22;6816;48.506;9.050;2023-04-30T00:46:27;14.30;99.90
13488;DHT22;6816;48.506;9.050;2023-04-30T00:49:28;14.30;99.90
13488;DHT22;6816;48.506;9.050;2023-04-30T00:52:29;14.40;99.90
13488;DHT22;6816;48.506;9.050;2023-04-30T00:55:30;14.30;99.90
13488;DHT22;6816;48.506;9.050;2023-04-30T00:58:30;14.30;99.90
13488;DHT22;6816;48.506;9.050;2023-04-30T01:01:32;14.30;99.90
13488;DHT22;6816;48.506;9.050;2023-04-30T01:04:32;14.30;99.90
13488;DHT22;6816;48.506;9.050;2023-04-30T01:07:35;14.30;99.90
13488;DHT22;6816;48.506;9.050;2023-04-30T01:11:00;14.30;99.90
13488;DHT22;6816;48.506;9.050;2023-04-30T01:14:16;14.30;99.90
13488;DHT22;6816;48.506;9.050;2023-04-30T01:17:22;14.30;99.90
13488;DHT22;6816;48.506;9.050;2023-04-30T01:20:28;14.30;99.90
13488;DHT22;6816;48.506;9.050;2023-04-30T01:29:52;14.30;99.90
13488;DHT22;6816;48.506;9.050;2023-04-30T01:32:55;14.30;99.90
13488;DHT22;6816;48.506;9.050;2023-04-30T01:36:20;14.30;99.90
13488;DHT22;6816;48.506;9.050;2023-04-30T01:39:38;14.30;99.90
13488;DHT22;6816;48.506;9.050;2023-04-30T01:46:10;14.20;99.90
13488;DHT22;6816;48.506;9.050;2023-04-30T01:53:15;14.20;99.90
13488;DHT22;6816;48.506;9.050;2023-04-30T01:56:31;14.20;99.90
13488;DHT22;6816;48.506;9.050;2023-04-30T01:59:35;14.10;99.90
13488;DHT22;6816;48.506;9.050;2023-04-30T02:02:37;14.10;99.90
13488;DHT22;6816;48.506;9.050;2023-04-30T02:05:38;14.10;99.90
13488;DHT22;6816;48.506;9.050;2023-04-30T02:08:38;14.20;99.90
13488;DHT22;6816;48.506;9.050;2023-04-30T02:11:39;14.10;99.90
13488;DHT22;6816;48.506;9.050;2023-04-30T02:14:40;14.10;99.90
13488;DHT22;6816;48.506;9.050;2023-04-30T02:17:41;14.10;99.90
13488;DHT22;6816;48.506;9.050;2023-04-30T02:20:41;14.10;99.90
13488;DHT22;6816;48.506;9.050;2023-04-30T02:23:42;14.10;99.90
13488;DHT22;6816;48.506;9.050;2023-04-30T02:26:43;14.00;99.90
13488;DHT22;6816;48.506;9.050;2023-04-30T02:29:43;14.00;99.90
13488;DHT22;6816;48.506;9.050;2023-04-30T02:32:44;14.00;99.90
13488;DHT22;6816;48.506;9.050;2023-04-30T02:35:45;14.00;99.90
13488;DHT22;6816;48.506;9.050;2023-04-30T02:38:46;14.00;99.90
13488;DHT22;6816;48.506;9.050;2023-04-30T02:41:46;14.00;99.90
13488;DHT22;6816;48.506;9.050;2023-04-30T02:44:47;13.90;99.90
13488;DHT22;6816;48.506;9.050;2023-04-30T02:47:47;13.90;99.90
13488;DHT22;6816;48.506;9.050;2023-04-30T02:50:48;13.90;99.90
13488;DHT22;6816;48.506;9.050;2023-04-30T02:53:49;13.80;99.90
13488;DHT22;6816;48.506;9.050;2023-04-30T02:56:49;13.80;99.90
13488;DHT22;6816;48.506;9.050;2023-04-30T02:59:50;13.80;99.90
13488;DHT22;6816;48.506;9.050;2023-04-30T03:02:51;13.80;99.90
13488;DHT22;6816;48.506;9.050;2023-04-30T03:05:51;13.80;99.90
13488;DHT22;6816;48.506;9.050;2023-04-30T03:08:52;13.80;99.90
13488;DHT22;6816;48.506;9.050;2023-04-30T03:11:53;13.70;99.90
13488;DHT22;6816;48.506;9.050;2023-04-30T03:14:54;13.70;99.90
13488;DHT22;6816;48.506;9.050;2023-04-30T03:17:55;13.80;99.90
13488;DHT22;6816;48.506;9.050;2023-04-30T03:20:56;13.80;99.90
13488;DHT22;6816;48.506;9.050;2023-04-30T03:23:56;13.70;99.90
13488;DHT22;6816;48.506;9.050;2023-04-30T03:26:57;13.70;99.90
13488;DHT22;6816;48.506;9.050;2023-04-30T03:29:58;13.70;99.90
13488;DHT22;6816;48.506;9.050;2023-04-30T03:32:58;13.60;99.90
13488;DHT22;6816;48.506;9.050;2023-04-30T03:35:59;13.70;99.90
13488;DHT22;6816;48.506;9.050;2023-04-30T03:39:00;13.60;99.90
13488;DHT22;6816;48.506;9.050;2023-04-30T03:42:01;13.60;99.90
13488;DHT22;6816;48.506;9.050;2023-04-30T03:45:02;13.60;99.90
13488;DHT22;6816;48.506;9.050;2023-04-30T03:48:03;13.50;99.90
13488;DHT22;6816;48.506;9.050;2023-04-30T03:51:04;13.50;99.90
13488;DHT22;6816;48.506;9.050;2023-04-30T03:54:05;13.50;99.90
13488;DHT22;6816;48.506;9.050;2023-04-30T03:57:06;13.50;99.90
13488;DHT22;6816;48.506;9.050;2023-04-30T04:00:10;13.40;99.90
13488;DHT22;6816;48.506;9.050;2023-04-30T04:03:13;13.40;99.90
13488;DHT22;6816;48.506;9.050;2023-04-30T04:06:14;13.40;99.90
13488;DHT22;6816;48.506;9.050;2023-04-30T04:09:15;13.30;99.90
13488;DHT22;6816;48.506;9.050;2023-04-30T04:12:15;13.30;99.90
13488;DHT22;6816;48.506;9.050;2023-04-30T04:15:16;13.30;99.90
13488;DHT22;6816;48.506;9.050;2023-04-30T04:18:17;13.30;99.90
13488;DHT22;6816;48.506;9.050;2023-04-30T04:21:18;13.20;99.90
13488;DHT22;6816;48.506;9.050;2023-04-30T04:24:19;13.20;99.90
13488;DHT22;6816;48.506;9.050;2023-04-30T04:27:20;13.20;99.90
13488;DHT22;6816;48.506;9.050;2023-04-30T04:30:21;13.20;99.90
13488;DHT22;6816;48.506;9.050;2023-04-30T04:33:21;13.20;99.90
13488;DHT22;6816;48.506;9.050;2023-04-30T04:36:22;13.20;99.90
13488;DHT22;6816;48.506;9.050;2023-04-30T04:39:23;13.20;99.90
13488;DHT22;6816;48.506;9.050;2023-04-30T04:42:23;13.20;99.90
13488;DHT22;6816;48.506;9.050;2023-04-30T04:45:24;13.20;99.90
13488;DHT22;6816;48.506;9.050;2023-04-30T04:48:25;13.20;99.90
13488;DHT22;6816;48.506;9.050;2023-04-30T04:51:25;13.20;99.90
13488;DHT22;6816;48.506;9.050;2023-04-30T04:54:26;13.20;99.90
13488;DHT22;6816;48.506;9.050;2023-04-30T04:57:27;13.40;99.90
13488;DHT22;6816;48.506;9.050;2023-04-30T05:00:28;13.30;99.90
13488;DHT22;6816;48.506;9.050;2023-04-30T05:03:29;13.30;99.90
13488;DHT22;6816;48.506;9.050;2023-04-30T05:06:30;13.40;99.90
13488;DHT22;6816;48.506;9.050;2023-04-30T05:09:31;13.30;99.90
13488;DHT22;6816;48.506;9.050;2023-04-30T05:12:32;13.40;99.90
13488;DHT22;6816;48.506;9.050;2023-04-30T05:15:32;13.40;99.90
13488;DHT22;6816;48.506;9.050;2023-04-30T05:18:33;13.40;99.90
13488;DHT22;6816;48.506;9.050;2023-04-30T05:21:34;13.40;99.90
13488;DHT22;6816;48.506;9.050;2023-04-30T05:24:34;13.50;99.90
13488;DHT22;6816;48.506;9.050;2023-04-30T05:27:35;13.50;99.90
13488;DHT22;6816;48.506;9.050;2023-04-30T05:30:37;13.50;99.90
13488;DHT22;6816;48.506;9.050;2023-04-30T05:33:38;13.50;99.90
13488;DHT22;6816;48.506;9.050;2023-04-30T05:36:40;13.60;99.90
13488;DHT22;6816;48.506;9.050;2023-04-30T05:39:40;13.60;99.90
13488;DHT22;6816;48.506;9.050;2023-04-30T05:42:41;13.70;99.90
13488;DHT22;6816;48.506;9.050;2023-04-30T05:45:45;13.90;99.90
13488;DHT22;6816;48.506;9.050;2023-04-30T05:48:45;13.90;99.90
13488;DHT22;6816;48.506;9.050;2023-04-30T05:51:46;13.90;99.90
13488;DHT22;6816;48.506;9.050;2023-04-30T05:54:47;14.00;99.90
13488;DHT22;6816;48.506;9.050;2023-04-30T05:57:47;14.20;99.90
13488;DHT22;6816;48.506;9.050;2023-04-30T06:00:51;14.40;99.90
13488;DHT22;6816;48.506;9.050;2023-04-30T06:03:52;14.70;99.90
13488;DHT22;6816;48.506;9.050;2023-04-30T06:06:52;14.80;99.90
13488;DHT22;6816;48.506;9.050;2023-04-30T06:09:53;15.10;99.90
13488;DHT22;6816;48.506;9.050;2023-04-30T06:12:53;15.40;99.90
13488;DHT22;6816;48.506;9.050;2023-04-30T06:15:54;15.50;99.90
13488;DHT22;6816;48.506;9.050;2023-04-30T06:18:55;15.70;99.90
13488;DHT22;6816;48.506;9.050;2023-04-30T06:21:55;15.90;99.90
13488;DHT22;6816;48.506;9.050;2023-04-30T06:24:56;16.00;99.90
13488;DHT22;6816;48.506;9.050;2023-04-30T06:27:57;16.10;99.90
13488;DHT22;6816;48.506;9.050;2023-04-30T06:30:58;16.30;99.90
13488;DHT22;6816;48.506;9.050;2023-04-30T06:33:59;16.40;99.90
13488;DHT22;6816;48.506;9.050;2023-04-30T06:36:59;16.50;99.90
13488;DHT22;6816;48.506;9.050;2023-04-30T06:40:00;16.60;99.90
13488;DHT22;6816;48.506;9.050;2023-04-30T06:43:01;16.70;99.90
13488;DHT22;6816;48.506;9.050;2023-04-30T06:46:01;16.80;99.90
13488;DHT22;6816;48.506;9.050;2023-04-30T06:49:03;16.90;99.90
13488;DHT22;6816;48.506;9.050;2023-04-30T06:52:04;17.00;99.90
13488;DHT22;6816;48.506;9.050;2023-04-30T06:55:04;17.10;99.90
13488;DHT22;6816;48.506;9.050;2023-04-30T06:58:06;17.10;99.90
13488;DHT22;6816;48.506;9.050;2023-04-30T07:01:07;17.10;99.90
13488;DHT22;6816;48.506;9.050;2023-04-30T07:04:08;17.10;99.90
13488;DHT22;6816;48.506;9.050;2023-04-30T07:07:08;17.10;99.90
13488;DHT22;6816;48.506;9.050;2023-04-30T07:10:09;17.10;99.90
13488;DHT22;6816;48.506;9.050;2023-04-30T07:13:10;17.10;99.90
13488;DHT22;6816;48.506;9.050;2023-04-30T07:16:10;17.10;99.90
13488;DHT22;6816;48.506;9.050;2023-04-30T07:19:11;17.00;99.90
13488;DHT22;6816;48.506;9.050;2023-04-30T07:22:12;17.00;99.90
13488;DHT22;6816;48.506;9.050;2023-04-30T07:25:12;17.10;99.90
13488;DHT22;6816;48.506;9.050;2023-04-30T07:28:13;17.10;99.90
13488;DHT22;6816;48.506;9.050;2023-04-30T07:31:14;17.10;99.90
13488;DHT22;6816;48.506;9.050;2023-04-30T07:34:14;17.30;99.90
13488;DHT22;6816;48.506;9.050;2023-04-30T07:37:15;17.30;99.90
13488;DHT22;6816;48.506;9.050;2023-04-30T07:40:16;17.40;99.90
13488;DHT22;6816;48.506;9.050;2023-04-30T07:43:16;17.40;99.90
13488;DHT22;6816;48.506;9.050;2023-04-30T07:46:17;17.50;99.90
13488;DHT22;6816;48.506;9.050;2023-04-30T07:49:18;17.60;99.90
13488;DHT22;6816;48.506;9.050;2023-04-30T07:52:19;17.60;99.90
13488;DHT22;6816;48.506;9.050;2023-04-30T07:55:19;17.80;99.90
13488;DHT22;6816;48.506;9.050;2023-04-30T07:58:20;17.90;99.90
13488;DHT22;6816;48.506;9.050;2023-04-30T08:01:20;18.00;99.90
13488;DHT22;6816;48.506;9.050;2023-04-30T08:04:21;18.10;99.90
13488;DHT22;6816;48.506;9.050;2023-04-30T08:07:22;18.20;99.90
13488;DHT22;6816;48.506;9.050;2023-04-30T08:10:25;18.30;99.90
13488;DHT22;6816;48.506;9.050;2023-04-30T08:13:26;18.40;99.90
13488;DHT22;6816;48.506;9.050;2023-04-30T08:16:26;18.50;99.90
13488;DHT22;6816;48.506;9.050;2023-04-30T08:19:27;18.60;99.90
13488;DHT22;6816;48.506;9.050;2023-04-30T08:22:27;18.60;99.00
13488;DHT22;6816;48.506;9.050;2023-04-30T08:25:28;18.50;98.70
13488;DHT22;6816;48.506;9.050;2023-04-30T08:28:30;18.50;98.80
13488;DHT22;6816;48.506;9.050;2023-04-30T08:31:31;18.50;98.50
13488;DHT22;6816;48.506;9.050;2023-04-30T08:34:32;18.50;98.50
13488;DHT22;6816;48.506;9.050;2023-04-30T08:37:33;18.40;98.30
13488;DHT22;6816;48.506;9.050;2023-04-30T08:40:35;18.40;98.00
13488;DHT22;6816;48.506;9.050;2023-04-30T08:43:36;18.30;97.20
13488;DHT22;6816;48.506;9.050;2023-04-30T08:46:37;18.30;97.50
13488;DHT22;6816;48.506;9.050;2023-04-30T08:49:40;18.30;97.30
13488;DHT22;6816;48.506;9.050;2023-04-30T08:52:41;18.30;97.40
13488;DHT22;6816;48.506;9.050;2023-04-30T08:55:43;18.30;97.40
13488;DHT22;6816;48.506;9.050;2023-04-30T08:58:44;18.30;97.30
13488;DHT22;6816;48.506;9.050;2023-04-30T09:01:45;18.30;97.20
13488;DHT22;6816;48.506;9.050;2023-04-30T09:04:46;18.30;97.50
13488;DHT22;6816;48.506;9.050;2023-04-30T09:07:47;18.40;97.80
13488;DHT22;6816;48.506;9.050;2023-04-30T09:10:48;18.50;97.70
13488;DHT22;6816;48.506;9.050;2023-04-30T09:13:50;18.60;97.90
13488;DHT22;6816;48.506;9.050;2023-04-30T09:16:52;18.70;97.70
13488;DHT22;6816;48.506;9.050;2023-04-30T09:19:53;18.70;97.30
13488;DHT22;6816;48.506;9.050;2023-04-30T09:23:07;18.80;97.20
13488;DHT22;6816;48.506;9.050;2023-04-30T09:26:09;19.00;94.40
13488;DHT22;6816;48.506;9.050;2023-04-30T09:29:15;19.10;97.10
13488;DHT22;6816;48.506;9.050;2023-04-30T09:32:16;19.20;97.40
13488;DHT22;6816;48.506;9.050;2023-04-30T09:35:31;19.40;97.20
13488;DHT22;6816;48.506;9.050;2023-04-30T09:38:32;19.50;93.90
13488;DHT22;6816;48.506;9.050;2023-04-30T09:41:33;19.50;96.30
13488;DHT22;6816;48.506;9.050;2023-04-30T09:44:41;19.60;95.80
13488;DHT22;6816;48.506;9.050;2023-04-30T09:47:42;19.60;93.60
13488;DHT22;6816;48.506;9.050;2023-04-30T09:50:44;19.60;95.20
13488;DHT22;6816;48.506;9.050;2023-04-30T09:53:46;19.50;94.90
13488;DHT22;6816;48.506;9.050;2023-04-30T09:56:46;19.50;94.60
13488;DHT22;6816;48.506;9.050;2023-04-30T09:59:49;19.60;94.80
13488;DHT22;6816;48.506;9.050;2023-04-30T10:02:52;19.60;93.70
13488;DHT22;6816;48.506;9.050;2023-04-30T10:05:53;19.60;94.20
13488;DHT22;6816;48.506;9.050;2023-04-30T10:08:55;19.60;94.10
13488;DHT22;6816;48.506;9.050;2023-04-30T10:11:57;19.60;93.60
13488;DHT22;6816;48.506;9.050;2023-04-30T10:15:04;19.60;93.80
13488;DHT22;6816;48.506;9.050;2023-04-30T10:18:10;19.60;92.90
13488;DHT22;6816;48.506;9.050;2023-04-30T10:21:15;19.60;93.40
13488;DHT22;6816;48.506;9.050;2023-04-30T10:24:18;19.70;93.80
13488;DHT22;6816;48.506;9.050;2023-04-30T10:27:20;19.70;93.40
13488;DHT22;6816;48.506;9.050;2023-04-30T10:30:21;19.70;93.50
13488;DHT22;6816;48.506;9.050;2023-04-30T10:33:24;19.80;93.30
13488;DHT22;6816;48.506;9.050;2023-04-30T10:36:49;19.80;93.10
13488;DHT22;6816;48.506;9.050;2023-04-30T10:39:51;19.90;90.10
13488;DHT22;6816;48.506;9.050;2023-04-30T10:42:53;19.90;93.60
13488;DHT22;6816;48.506;9.050;2023-04-30T10:45:56;19.90;92.70
13488;DHT22;6816;48.506;9.050;2023-04-30T10:48:57;20.00;92.40
13488;DHT22;6816;48.506;9.050;2023-04-30T10:52:03;20.00;93.20
13488;DHT22;6816;48.506;9.050;2023-04-30T10:55:05;20.10;93.00
13488;DHT22;6816;48.506;9.050;2023-04-30T10:58:26;20.10;92.40
13488;DHT22;6816;48.506;9.050;2023-04-30T11:01:28;20.20;88.50
13488;DHT22;6816;48.506;9.050;2023-04-30T11:04:28;20.20;92.40
13488;DHT22;6816;48.506;9.050;2023-04-30T11:07:29;20.20;92.00
13488;DHT22;6816;48.506;9.050;2023-04-30T11:10:34;20.20;92.10
13488;DHT22;6816;48.506;9.050;2023-04-30T11:13:39;20.20;90.40
13488;DHT22;6816;48.506;9.050;2023-04-30T11:16:40;20.10;90.50
13488;DHT22;6816;48.506;9.050;2023-04-30T11:19:49;20.10;91.40
13488;DHT22;6816;48.506;9.050;2023-04-30T11:23:15;20.10;88.80
13488;DHT22;6816;48.506;9.050;2023-04-30T11:26:16;20.10;87.20
13488;DHT22;6816;48.506;9.050;2023-04-30T11:29:17;20.00;91.60
13488;DHT22;6816;48.506;9.050;2023-04-30T11:32:19;20.00;91.40
13488;DHT22;6816;48.506;9.050;2023-04-30T11:35:20;20.00;91.00
13488;DHT22;6816;48.506;9.050;2023-04-30T11:38:24;20.10;91.20
13488;DHT22;6816;48.506;9.050;2023-04-30T11:41:25;20.10;91.00
13488;DHT22;6816;48.506;9.050;2023-04-30T11:44:27;20.20;91.30
13488;DHT22;6816;48.506;9.050;2023-04-30T11:50:43;20.40;87.80
13488;DHT22;6816;48.506;9.050;2023-04-30T11:53:45;20.50;91.40
13488;DHT22;6816;48.506;9.050;2023-04-30T11:56:47;20.70;91.00
13488;DHT22;6816;48.506;9.050;2023-04-30T11:59:48;20.70;91.20
13488;DHT22;6816;48.506;9.050;2023-04-30T12:02:49;20.90;90.70
13488;DHT22;6816;48.506;9.050;2023-04-30T12:05:49;21.00;90.50
13488;DHT22;6816;48.506;9.050;2023-04-30T12:08:54;21.10;90.30
13488;DHT22;6816;48.506;9.050;2023-04-30T12:11:55;21.20;88.20
13488;DHT22;6816;48.506;9.050;2023-04-30T12:14:56;21.20;90.50
13488;DHT22;6816;48.506;9.050;2023-04-30T12:17:58;21.30;90.00
13488;DHT22;6816;48.506;9.050;2023-04-30T12:20:59;21.50;88.60
13488;DHT22;6816;48.506;9.050;2023-04-30T12:24:00;21.50;87.80
13488;DHT22;6816;48.506;9.050;2023-04-30T12:27:00;21.60;87.40
13488;DHT22;6816;48.506;9.050;2023-04-30T12:30:06;21.60;89.10
13488;DHT22;6816;48.506;9.050;2023-04-30T12:33:09;21.70;85.00
13488;DHT22;6816;48.506;9.050;2023-04-30T12:36:10;21.70;87.10
13488;DHT22;6816;48.506;9.050;2023-04-30T12:39:16;21.80;87.70
13488;DHT22;6816;48.506;9.050;2023-04-30T12:42:19;21.90;87.30
13488;DHT22;6816;48.506;9.050;2023-04-30T12:48:43;22.10;78.60
13488;DHT22;6816;48.506;9.050;2023-04-30T12:51:44;22.10;86.60
13488;DHT22;6816;48.506;9.050;2023-04-30T12:54:45;22.30;87.00
13488;DHT22;6816;48.506;9.050;2023-04-30T12:58:06;22.40;85.10
13488;DHT22;6816;48.506;9.050;2023-04-30T13:01:11;22.50;78.70
13488;DHT22;6816;48.506;9.050;2023-04-30T13:04:14;22.60;82.50
13488;DHT22;6816;48.506;9.050;2023-04-30T13:07:15;22.70;85.40
13488;DHT22;6816;48.506;9.050;2023-04-30T13:10:15;22.80;85.10
13488;DHT22;6816;48.506;9.050;2023-04-30T13:13:16;22.90;83.50
13488;DHT22;6816;48.506;9.050;2023-04-30T13:16:19;22.80;81.50
13488;DHT22;6816;48.506;9.050;2023-04-30T13:19:20;22.80;80.90
13488;DHT22;6816;48.506;9.050;2023-04-30T13:22:20;22.70;81.00
13488;DHT22;6816;48.506;9.050;2023-04-30T13:25:23;22.50;80.50
13488;DHT22;6816;48.506;9.050;2023-04-30T13:28:23;22.40;79.80
13488;DHT22;6816;48.506;9.050;2023-04-30T13:31:24;22.30;78.70
13488;DHT22;6816;48.506;9.050;2023-04-30T13:34:25;22.20;79.00
13488;DHT22;6816;48.506;9.050;2023-04-30T13:37:25;22.10;79.10
13488;DHT22;6816;48.506;9.050;2023-04-30T13:40:26;21.90;79.00
13488;DHT22;6816;48.506;9.050;2023-04-30T13:43:27;21.80;79.20
13488;DHT22;6816;48.506;9.050;2023-04-30T13:46:28;21.80;80.10
13488;DHT22;6816;48.506;9.050;2023-04-30T13:49:29;21.80;80.30
13488;DHT22;6816;48.506;9.050;2023-04-30T13:52:30;21.80;80.80
13488;DHT22;6816;48.506;9.050;2023-04-30T13:55:31;21.80;81.40
13488;DHT22;6816;48.506;9.050;2023-04-30T13:58:32;21.90;81.20
13488;DHT22;6816;48.506;9.050;2023-04-30T14:01:33;22.00;80.90
13488;DHT22;6816;48.506;9.050;2023-04-30T14:04:33;22.10;80.50
13488;DHT22;6816;48.506;9.050;2023-04-30T14:07:34;22.20;80.80
13488;DHT22;6816;48.506;9.050;2023-04-30T14:10:35;22.40;81.20
13488;DHT22;6816;48.506;9.050;2023-04-30T14:13:35;22.50;80.60
13488;DHT22;6816;48.506;9.050;2023-04-30T14:16:36;22.60;80.00
13488;DHT22;6816;48.506;9.050;2023-04-30T14:19:37;22.60;79.20
13488;DHT22;6816;48.506;9.050;2023-04-30T14:22:37;22.60;78.20
13488;DHT22;6816;48.506;9.050;2023-04-30T14:25:38;22.60;77.90
13488;DHT22;6816;48.506;9.050;2023-04-30T14:28:38;22.50;77.80
13488;DHT22;6816;48.506;9.050;2023-04-30T14:31:39;22.50;77.30
13488;DHT22;6816;48.506;9.050;2023-04-30T14:34:40;22.40;78.10
13488;DHT22;6816;48.506;9.050;2023-04-30T14:37:40;22.40;77.50
13488;DHT22;6816;48.506;9.050;2023-04-30T14:40:42;22.40;77.80
13488;DHT22;6816;48.506;9.050;2023-04-30T14:43:43;22.40;75.80
13488;DHT22;6816;48.506;9.050;2023-04-30T14:46:44;22.30;76.90
13488;DHT22;6816;48.506;9.050;2023-04-30T14:49:46;22.30;76.10
13488;DHT22;6816;48.506;9.050;2023-04-30T14:52:49;22.30;75.60
13488;DHT22;6816;48.506;9.050;2023-04-30T14:55:50;22.30;76.20
13488;DHT22;6816;48.506;9.050;2023-04-30T14:58:51;22.30;76.90
13488;DHT22;6816;48.506;9.050;2023-04-30T15:01:52;22.40;77.40
13488;DHT22;6816;48.506;9.050;2023-04-30T15:04:53;22.40;76.70
13488;DHT22;6816;48.506;9.050;2023-04-30T15:07:54;22.40;76.10
13488;DHT22;6816;48.506;9.050;2023-04-30T15:10:54;22.40;76.20
13488;DHT22;6816;48.506;9.050;2023-04-30T15:13:55;22.40;76.00
13488;DHT22;6816;48.506;9.050;2023-04-30T15:16:56;22.50;76.50
13488;DHT22;6816;48.506;9.050;2023-04-30T15:19:57;22.40;75.30
13488;DHT22;6816;48.506;9.050;2023-04-30T15:23:00;22.40;74.30
13488;DHT22;6816;48.506;9.050;2023-04-30T15:26:01;22.30;74.20
13488;DHT22;6816;48.506;9.050;2023-04-30T15:29:03;22.30;74.30
13488;DHT22;6816;48.506;9.050;2023-04-30T15:32:03;22.20;73.70
13488;DHT22;6816;48.506;9.050;2023-04-30T15:35:05;22.20;73.50
13488;DHT22;6816;48.506;9.050;2023-04-30T15:38:06;22.10;73.70
13488;DHT22;6816;48.506;9.050;2023-04-30T15:41:06;22.00;74.30
13488;DHT22;6816;48.506;9.050;2023-04-30T15:44:07;21.90;73.30
13488;DHT22;6816;48.506;9.050;2023-04-30T15:47:07;21.90;73.50
13488;DHT22;6816;48.506;9.050;2023-04-30T15:50:08;21.80;73.40
13488;DHT22;6816;48.506;9.050;2023-04-30T15:53:09;21.70;73.30
13488;DHT22;6816;48.506;9.050;2023-04-30T15:56:10;21.60;73.80
13488;DHT22;6816;48.506;9.050;2023-04-30T15:59:11;21.50;73.60
13488;DHT22;6816;48.506;9.050;2023-04-30T16:02:15;21.40;74.10
13488;DHT22;6816;48.506;9.050;2023-04-30T16:05:16;21.30;73.80
13488;DHT22;6816;48.506;9.050;2023-04-30T16:08:16;21.30;73.60
13488;DHT22;6816;48.506;9.050;2023-04-30T16:11:17;21.20;74.10
13488;DHT22;6816;48.506;9.050;2023-04-30T16:14:19;21.10;74.10
13488;DHT22;6816;48.506;9.050;2023-04-30T16:17:20;21.00;73.70
13488;DHT22;6816;48.506;9.050;2023-04-30T16:20:20;21.00;74.30
13488;DHT22;6816;48.506;9.050;2023-04-30T16:23:22;20.90;74.00
13488;DHT22;6816;48.506;9.050;2023-04-30T16:26:22;20.80;73.70
13488;DHT22;6816;48.506;9.050;2023-04-30T16:29:23;20.80;74.10
13488;DHT22;6816;48.506;9.050;2023-04-30T16:32:24;20.70;74.20
13488;DHT22;6816;48.506;9.050;2023-04-30T16:35:24;20.60;74.40
13488;DHT22;6816;48.506;9.050;2023-04-30T16:38:26;20.50;73.90
13488;DHT22;6816;48.506;9.050;2023-04-30T16:41:26;20.40;73.80
13488;DHT22;6816;48.506;9.050;2023-04-30T16:44:27;20.40;74.40
13488;DHT22;6816;48.506;9.050;2023-04-30T16:47:27;20.30;74.40
13488;DHT22;6816;48.506;9.050;2023-04-30T16:50:28;20.20;74.30
13488;DHT22;6816;48.506;9.050;2023-04-30T16:53:29;20.20;74.30
13488;DHT22;6816;48.506;9.050;2023-04-30T16:56:29;20.10;74.50
13488;DHT22;6816;48.506;9.050;2023-04-30T16:59:30;20.00;74.60
13488;DHT22;6816;48.506;9.050;2023-04-30T17:02:30;20.00;74.60
13488;DHT22;6816;48.506;9.050;2023-04-30T17:05:31;19.90;74.50
13488;DHT22;6816;48.506;9.050;2023-04-30T17:08:32;19.90;74.90
13488;DHT22;6816;48.506;9.050;2023-04-30T17:11:33;19.80;75.30
13488;DHT22;6816;48.506;9.050;2023-04-30T17:14:34;19.80;75.20
13488;DHT22;6816;48.506;9.050;2023-04-30T17:17:35;19.70;75.00
13488;DHT22;6816;48.506;9.050;2023-04-30T17:20:35;19.70;75.20
13488;DHT22;6816;48.506;9.050;2023-04-30T17:23:36;19.60;75.40
13488;DHT22;6816;48.506;9.050;2023-04-30T17:26:37;19.60;75.20
13488;DHT22;6816;48.506;9.050;2023-04-30T17:29:37;19.50;75.20
13488;DHT22;6816;48.506;9.050;2023-04-30T17:32:38;19.40;75.50
13488;DHT22;6816;48.506;9.050;2023-04-30T17:35:38;19.40;75.30
13488;DHT22;6816;48.506;9.050;2023-04-30T17:38:39;19.30;75.80
13488;DHT22;6816;48.506;9.050;2023-04-30T17:41:40;19.30;75.70
13488;DHT22;6816;48.506;9.050;2023-04-30T17:44:41;19.20;75.70
13488;DHT22;6816;48.506;9.050;2023-04-30T17:47:41;19.20;75.70
13488;DHT22;6816;48.506;9.050;2023-04-30T17:50:42;19.10;76.10
13488;DHT22;6816;48.506;9.050;2023-04-30T17:53:43;19.00;76.40
13488;DHT22;6816;48.506;9.050;2023-04-30T17:56:43;19.00;76.20
13488;DHT22;6816;48.506;9.050;2023-04-30T17:59:44;18.90;76.40
13488;DHT22;6816;48.506;9.050;2023-04-30T18:02:44;18.80;76.50
13488;DHT22;6816;48.506;9.050;2023-04-30T18:05:45;18.80;76.90
13488;DHT22;6816;48.506;9.050;2023-04-30T18:08:46;18.70;77.00
13488;DHT22;6816;48.506;9.050;2023-04-30T18:11:46;18.60;77.10
13488;DHT22;6816;48.506;9.050;2023-04-30T18:14:47;18.60;77.60
13488;DHT22;6816;48.506;9.050;2023-04-30T18:17:47;18.50;77.70
13488;DHT22;6816;48.506;9.050;2023-04-30T18:20:48;18.50;78.00
13488;DHT22;6816;48.506;9.050;2023-04-30T18:23:50;18.40;78.70
13488;DHT22;6816;48.506;9.050;2023-04-30T18:26:50;18.30;78.00
13488;DHT22;6816;48.506;9.050;2023-04-30T18:29:51;18.30;78.10
13488;DHT22;6816;48.506;9.050;2023-04-30T18:32:52;18.30;78.20
13488;DHT22;6816;48.506;9.050;2023-04-30T18:35:52;18.20;78.50
13488;DHT22;6816;48.506;9.050;2023-04-30T18:38:53;18.10;78.40
13488;DHT22;6816;48.506;9.050;2023-04-30T18:41:53;18.00;78.50
13488;DHT22;6816;48.506;9.050;2023-04-30T18:44:54;17.90;78.70
13488;DHT22;6816;48.506;9.050;2023-04-30T18:47:56;17.80;78.90
13488;DHT22;6816;48.506;9.050;2023-04-30T18:50:57;17.70;79.00
13488;DHT22;6816;48.506;9.050;2023-04-30T18:53:57;17.60;79.60
13488;DHT22;6816;48.506;9.050;2023-04-30T18:56:58;17.50;79.80
13488;DHT22;6816;48.506;9.050;2023-04-30T18:59:58;17.50;80.30
13488;DHT22;6816;48.506;9.050;2023-04-30T19:02:59;17.40;80.50
13488;DHT22;6816;48.506;9.050;2023-04-30T19:06:00;17.30;80.70
13488;DHT22;6816;48.506;9.050;2023-04-30T19:09:00;17.30;81.80
13488;DHT22;6816;48.506;9.050;2023-04-30T19:12:01;17.30;81.10
13488;DHT22;6816;48.506;9.050;2023-04-30T19:15:03;17.20;81.20
13488;DHT22;6816;48.506;9.050;2023-04-30T19:18:04;17.20;81.50
13488;DHT22;6816;48.506;9.050;2023-04-30T19:21:04;17.10;81.60
13488;DHT22;6816;48.506;9.050;2023-04-30T19:24:05;17.10;81.70
13488;DHT22;6816;48.506;9.050;2023-04-30T19:27:06;17.10;81.70
13488;DHT22;6816;48.506;9.050;2023-04-30T19:30:07;17.10;81.70
13488;DHT22;6816;48.506;9.050;2023-04-30T19:33:08;17.00;81.90
13488;DHT22;6816;48.506;9.050;2023-04-30T19:36:08;17.00;82.00
13488;DHT22;6816;48.506;9.050;2023-04-30T19:39:10;17.00;82.10
13488;DHT22;6816;48.506;9.050;2023-04-30T19:42:11;17.00;82.10
13488;DHT22;6816;48.506;9.050;2023-04-30T19:45:11;17.00;82.30